Time;durP1;ratioP1;P1;durP2;ratioP2;P2;SDS_P1;SDS_P2;PMS_P1;PMS_P2;Temp;Humidity;BMP_temperature;BMP_pressure;BME280_temperature;BME280_humidity;BME280_pressure;Samples;Min_cycle;Max_cycle;Signal;HPM_P1;HPM_P2
2023/10/04 00:02:58;;;;;;;3.00;1.60;;;;;;;;;;4995218;28;20178;-83
2023/10/04 00:06:02;;;;;;;6.73;1.73;;;;;;;;;;5041027;28;20179;-83
2023/10/04 00:09:11;;;;;;;3.80;2.00;;;;;;;;;;4994429;28;20178;-82
2023/10/04 00:12:15;;;;;;;4.27;2.17;;;;;;;;;;5041353;28;20186;-83
2023/10/04 00:15:20;;;;;;;3.17;1.80;;;;;;;;;;4994345;28;20179;-82
2023/10/04 00:18:24;;;;;;;4.10;1.70;;;;;;;;;;5040169;28;20213;-82
2023/10/04 00:21:28;;;;;;;7.43;2.00;;;;;;;;;;4994412;28;20174;-83
2023/10/04 00:24:33;;;;;;;3.50;1.83;;;;;;;;;;4993773;28;20183;-83
2023/10/04 00:27:41;;;;;;;3.60;1.70;;;;;;;;;;5040583;28;20210;-84
2023/10/04 00:30:45;;;;;;;4.23;1.77;;;;;;;;;;4994276;28;20186;-82
2023/10/04 00:33:49;;;;;;;3.43;1.70;;;;;;;;;;4994003;28;20182;-82
2023/10/04 00:36:53;;;;;;;3.87;2.07;;;;;;;;;;5040283;28;20214;-82
2023/10/04 00:39:58;;;;;;;5.03;1.90;;;;;;;;;;5040760;28;20174;-82
2023/10/04 00:43:13;;;;;;;3.63;1.90;;;;;;;;;;5040163;28;20182;-82
2023/10/04 00:46:22;;;;;;;3.80;1.83;;;;;;;;;;4993922;28;20183;-83
2023/10/04 00:49:26;;;;;;;4.03;1.90;;;;;;;;;;5028692;28;20183;-84
2023/10/04 00:52:30;;;;;;;3.73;2.03;;;;;;;;;;4970324;28;20182;-82
2023/10/04 00:55:39;;;;;;;4.73;2.10;;;;;;;;;;5039976;28;20182;-84
2023/10/04 00:58:45;;;;;;;5.30;2.10;;;;;;;;;;4993069;28;20218;-83
2023/10/04 01:01:50;;;;;;;3.40;1.63;;;;;;;;;;5028605;28;20178;-82
2023/10/04 01:04:54;;;;;;;3.03;1.70;;;;;;;;;;5040498;28;20536;-82
2023/10/04 01:07:59;;;;;;;5.60;2.57;;;;;;;;;;4981185;28;20217;-83
2023/10/04 01:11:06;;;;;;;3.57;1.93;;;;;;;;;;5028540;28;20182;-82
2023/10/04 01:14:24;;;;;;;3.10;2.10;;;;;;;;;;4993441;28;20516;-83
2023/10/04 01:17:29;;;;;;;4.47;1.93;;;;;;;;;;4993363;28;20234;-84
2023/10/04 01:20:34;;;;;;;2.30;1.70;;;;;;;;;;5039332;28;20183;-83
2023/10/04 01:23:40;;;;;;;4.93;2.10;;;;;;;;;;5039778;28;20186;-83
2023/10/04 01:26:45;;;;;;;3.03;1.80;;;;;;;;;;5039610;28;20635;-82
2023/10/04 01:29:49;;;;;;;6.30;2.03;;;;;;;;;;5028945;28;20227;-84
2023/10/04 01:32:54;;;;;;;4.47;2.03;;;;;;;;;;5040155;28;20178;-82
2023/10/04 01:35:58;;;;;;;5.10;1.80;;;;;;;;;;4993210;28;20202;-83
2023/10/04 01:39:07;;;;;;;4.40;2.17;;;;;;;;;;5039609;28;20174;-83
2023/10/04 01:42:11;;;;;;;6.87;1.93;;;;;;;;;;5039833;28;20194;-84
2023/10/04 01:45:18;;;;;;;3.67;2.07;;;;;;;;;;4980728;28;20178;-83
2023/10/04 01:48:36;;;;;;;2.97;2.03;;;;;;;;;;4992995;28;20218;-83
2023/10/04 01:51:42;;;;;;;2.37;1.93;;;;;;;;;;4993416;28;20179;-82
2023/10/04 01:54:46;;;;;;;4.10;2.23;;;;;;;;;;5039706;28;20183;-83
2023/10/04 01:57:50;;;;;;;3.13;1.80;;;;;;;;;;4969603;28;20226;-83
2023/10/04 02:01:00;;;;;;;2.63;1.80;;;;;;;;;;5039733;28;20631;-82
2023/10/04 02:04:05;;;;;;;2.77;2.10;;;;;;;;;;5030243;28;20528;-83
2023/10/04 02:07:09;;;;;;;2.23;1.80;;;;;;;;;;5042891;28;20214;-82
2023/10/04 02:10:14;;;;;;;2.73;2.00;;;;;;;;;;5031890;28;20186;-83
2023/10/04 02:13:19;;;;;;;3.30;2.47;;;;;;;;;;4996796;28;20186;-84
2023/10/04 02:16:24;;;;;;;2.73;1.83;;;;;;;;;;4996439;28;20206;-84
2023/10/04 02:19:30;;;;;;;4.90;1.87;;;;;;;;;;5043085;28;20183;-83
2023/10/04 02:22:34;;;;;;;3.47;2.20;;;;;;;;;;5031281;28;20639;-82
2023/10/04 02:25:39;;;;;;;3.10;1.80;;;;;;;;;;4995990;28;20178;-82
2023/10/04 02:28:45;;;;;;;6.00;2.60;;;;;;;;;;5042721;28;20221;-84
2023/10/04 02:31:49;;;;;;;4.03;2.00;;;;;;;;;;4962328;28;20179;-83
2023/10/04 02:34:53;;;;;;;3.60;2.10;;;;;;;;;;5042889;28;20642;-83
2023/10/04 02:38:09;;;;;;;4.90;2.30;;;;;;;;;;4995569;28;20583;-84
2023/10/04 02:41:15;;;;;;;2.33;1.90;;;;;;;;;;5042402;28;20183;-82
2023/10/04 02:44:19;;;;;;;3.63;1.97;;;;;;;;;;5020080;28;20179;-82
2023/10/04 02:47:26;;;;;;;5.07;2.00;;;;;;;;;;5042439;28;20206;-82
2023/10/04 02:50:29;;;;;;;3.00;1.97;;;;;;;;;;4995790;28;20183;-83
2023/10/04 02:53:34;;;;;;;2.63;1.67;;;;;;;;;;5030381;28;20186;-83
2023/10/04 02:56:45;;;;;;;4.03;1.90;;;;;;;;;;5042350;28;20218;-83
2023/10/04 02:59:50;;;;;;;4.07;1.93;;;;;;;;;;5030982;28;20187;-82
2023/10/04 03:02:54;;;;;;;8.30;2.50;;;;;;;;;;4995654;28;20179;-82
2023/10/04 03:06:01;;;;;;;2.93;1.90;;;;;;;;;;5042053;28;20179;-84
2023/10/04 03:09:06;;;;;;;2.87;1.97;;;;;;;;;;5042239;28;20178;-83
2023/10/04 03:12:10;;;;;;;3.10;1.97;;;;;;;;;;4996207;28;20178;-84
2023/10/04 03:15:14;;;;;;;2.73;1.90;;;;;;;;;;5041509;28;20485;-84
2023/10/04 03:18:20;;;;;;;2.63;1.90;;;;;;;;;;4982953;28;20706;-83
2023/10/04 03:21:30;;;;;;;4.77;1.90;;;;;;;;;;5030577;28;20178;-82
2023/10/04 03:24:36;;;;;;;3.80;2.27;;;;;;;;;;5019128;28;20186;-83
2023/10/04 03:27:44;;;;;;;3.80;2.00;;;;;;;;;;5042021;28;20205;-83
2023/10/04 03:30:49;;;;;;;3.00;2.00;;;;;;;;;;5042264;28;20191;-84
2023/10/04 03:33:55;;;;;;;6.83;2.13;;;;;;;;;;4995049;28;20182;-82
2023/10/04 03:37:09;;;;;;;2.87;1.80;;;;;;;;;;5041549;28;20222;-82
2023/10/04 03:40:14;;;;;;;2.90;1.80;;;;;;;;;;5041513;28;20179;-83
2023/10/04 03:43:19;;;;;;;5.60;2.20;;;;;;;;;;5041817;28;20178;-83
2023/10/04 03:46:24;;;;;;;4.90;1.70;;;;;;;;;;5030113;28;20186;-82
2023/10/04 03:49:35;;;;;;;2.73;2.20;;;;;;;;;;5041015;28;20187;-82
2023/10/04 03:52:40;;;;;;;1.93;1.70;;;;;;;;;;5041493;28;20521;-83
2023/10/04 03:55:44;;;;;;;2.87;1.70;;;;;;;;;;5041202;28;20182;-83
2023/10/04 03:58:50;;;;;;;4.83;2.47;;;;;;;;;;5041684;28;20210;-82
2023/10/04 04:01:55;;;;;;;5.37;2.50;;;;;;;;;;4982834;28;20174;-84
2023/10/04 04:04:59;;;;;;;3.43;1.93;;;;;;;;;;4971593;28;20182;-82
2023/10/04 04:08:04;;;;;;;5.47;1.93;;;;;;;;;;5030141;28;20213;-82
2023/10/04 04:11:08;;;;;;;3.97;2.20;;;;;;;;;;5040869;28;20186;-84
2023/10/04 04:14:18;;;;;;;3.53;2.27;;;;;;;;;;5029500;28;20182;-83
2023/10/04 04:17:22;;;;;;;2.60;2.00;;;;;;;;;;5041391;28;20234;-82
2023/10/04 04:20:30;;;;;;;5.67;2.13;;;;;;;;;;5040164;28;20647;-84
2023/10/04 04:23:35;;;;;;;3.67;1.97;;;;;;;;;;5040835;28;20178;-82
2023/10/04 04:26:40;;;;;;;3.00;1.97;;;;;;;;;;5040627;28;20178;-84
2023/10/04 04:29:44;;;;;;;3.87;2.00;;;;;;;;;;5029253;28;20201;-82
2023/10/04 04:32:52;;;;;;;3.37;2.30;;;;;;;;;;4982258;28;20182;-83
2023/10/04 04:36:04;;;;;;;5.63;2.30;;;;;;;;;;5018056;28;20183;-82
2023/10/04 04:39:13;;;;;;;3.93;2.40;;;;;;;;;;5040523;28;20182;-82
2023/10/04 04:42:29;;;;;;;4.50;1.90;;;;;;;;;;5040773;28;20182;-82
2023/10/04 04:45:35;;;;;;;5.17;2.47;;;;;;;;;;5041384;28;20199;-83
2023/10/04 04:48:41;;;;;;;5.10;2.97;;;;;;;;;;5040700;28;20669;-83
2023/10/04 04:51:52;;;;;;;3.63;2.20;;;;;;;;;;5041063;28;20186;-83
2023/10/04 04:54:58;;;;;;;3.33;2.60;;;;;;;;;;5040693;28;20179;-82
2023/10/04 04:58:02;;;;;;;3.70;2.50;;;;;;;;;;5040079;28;20602;-82
2023/10/04 05:01:13;;;;;;;4.83;2.50;;;;;;;;;;5043829;28;20179;-83
2023/10/04 05:04:19;;;;;;;3.53;2.57;;;;;;;;;;5040322;28;20182;-82
2023/10/04 05:07:26;;;;;;;4.70;2.47;;;;;;;;;;5040770;28;20213;-83
2023/10/04 05:10:37;;;;;;;3.90;2.40;;;;;;;;;;5040882;28;20186;-83
2023/10/04 05:13:42;;;;;;;6.40;2.60;;;;;;;;;;4994223;28;20551;-83
2023/10/04 05:16:46;;;;;;;4.63;2.30;;;;;;;;;;4994039;28;20542;-82
2023/10/04 05:19:50;;;;;;;4.27;2.43;;;;;;;;;;4971525;28;20639;-83
2023/10/04 05:22:54;;;;;;;3.97;2.67;;;;;;;;;;4994434;28;20186;-82
2023/10/04 05:25:59;;;;;;;4.03;2.40;;;;;;;;;;4993785;28;20524;-83
2023/10/04 05:29:03;;;;;;;4.33;2.73;;;;;;;;;;4994123;28;20198;-84
2023/10/04 05:32:08;;;;;;;11.10;4.07;;;;;;;;;;4994387;28;20186;-83
2023/10/04 05:35:12;;;;;;;4.10;2.83;;;;;;;;;;4993906;28;20179;-82
2023/10/04 05:38:17;;;;;;;5.17;2.80;;;;;;;;;;4994267;28;20690;-84
2023/10/04 05:41:21;;;;;;;5.73;2.83;;;;;;;;;;5043523;28;20182;-84
2023/10/04 05:44:25;;;;;;;4.57;2.53;;;;;;;;;;4997627;28;20175;-83
2023/10/04 05:47:30;;;;;;;8.97;3.73;;;;;;;;;;4996738;28;20235;-83
2023/10/04 05:50:35;;;;;;;8.27;5.63;;;;;;;;;;5032563;28;20183;-84
2023/10/04 05:53:40;;;;;;;6.70;5.10;;;;;;;;;;4997165;28;20178;-83
2023/10/04 05:56:44;;;;;;;9.87;4.57;;;;;;;;;;4996659;28;20520;-82
2023/10/04 05:59:48;;;;;;;13.30;6.67;;;;;;;;;;5031963;28;20179;-82
2023/10/04 06:02:58;;;;;;;15.63;7.53;;;;;;;;;;4997390;28;20174;-82
2023/10/04 06:06:03;;;;;;;13.43;7.57;;;;;;;;;;4996827;28;20297;-83
2023/10/04 06:09:09;;;;;;;13.33;7.67;;;;;;;;;;4996310;28;20182;-83
2023/10/04 06:12:13;;;;;;;11.10;6.60;;;;;;;;;;4985047;28;20673;-82
2023/10/04 06:15:18;;;;;;;10.43;5.67;;;;;;;;;;4996679;28;20186;-83
2023/10/04 06:18:26;;;;;;;9.40;4.90;;;;;;;;;;4996646;28;20222;-83
2023/10/04 06:21:32;;;;;;;4.83;3.43;;;;;;;;;;4996740;28;20627;-82
2023/10/04 06:24:37;;;;;;;5.47;3.80;;;;;;;;;;5043637;28;20640;-84
2023/10/04 06:27:41;;;;;;;4.50;3.20;;;;;;;;;;4997125;28;20214;-82
2023/10/04 06:30:48;;;;;;;5.77;3.43;;;;;;;;;;5042872;28;20179;-81
2023/10/04 06:33:54;;;;;;;6.37;3.17;;;;;;;;;;5043597;28;20178;-83
2023/10/04 06:36:58;;;;;;;4.00;3.03;;;;;;;;;;4997062;28;20702;-83
2023/10/04 06:40:04;;;;;;;5.03;3.20;;;;;;;;;;5043185;28;20178;-82
2023/10/04 06:43:09;;;;;;;5.83;2.53;;;;;;;;;;4996895;28;20178;-83
2023/10/04 06:46:14;;;;;;;4.47;2.50;;;;;;;;;;5042798;28;20190;-83
2023/10/04 06:49:18;;;;;;;4.80;2.70;;;;;;;;;;4996208;28;20182;-84
2023/10/04 06:52:22;;;;;;;4.47;2.47;;;;;;;;;;5043287;28;20182;-84
2023/10/04 06:55:26;;;;;;;4.40;2.63;;;;;;;;;;5042682;28;20182;-84
2023/10/04 06:58:30;;;;;;;6.60;2.93;;;;;;;;;;4996399;28;20222;-84
2023/10/04 07:01:35;;;;;;;3.80;2.47;;;;;;;;;;4996473;28;20182;-84
2023/10/04 07:04:39;;;;;;;6.20;2.70;;;;;;;;;;5042284;28;20182;-84
2023/10/04 07:07:44;;;;;;;5.30;2.40;;;;;;;;;;5042874;28;20218;-83
2023/10/04 07:10:49;;;;;;;4.63;2.13;;;;;;;;;;5032634;28;20178;-83
2023/10/04 07:13:54;;;;;;;3.77;2.10;;;;;;;;;;5042789;28;20190;-85
2023/10/04 07:16:59;;;;;;;3.53;2.40;;;;;;;;;;4996214;28;20221;-84
2023/10/04 07:20:08;;;;;;;6.20;2.10;;;;;;;;;;5042372;28;20178;-84
2023/10/04 07:23:13;;;;;;;4.37;2.27;;;;;;;;;;5042710;28;20179;-84
2023/10/04 07:26:18;;;;;;;5.63;2.60;;;;;;;;;;5041996;28;20528;-82
2023/10/04 07:29:22;;;;;;;4.70;2.37;;;;;;;;;;4995792;28;20540;-81
2023/10/04 07:32:28;;;;;;;8.33;2.37;;;;;;;;;;4995606;28;20183;-81
2023/10/04 07:35:35;;;;;;;4.67;2.00;;;;;;;;;;4995691;28;20257;-81
2023/10/04 07:38:39;;;;;;;8.13;4.03;;;;;;;;;;4995482;28;20230;-81
2023/10/04 07:41:43;;;;;;;6.63;3.00;;;;;;;;;;4996018;28;20639;-82
2023/10/04 07:44:48;;;;;;;5.70;2.80;;;;;;;;;;4995939;28;20178;-82
2023/10/04 07:47:52;;;;;;;4.20;2.07;;;;;;;;;;4995402;28;20217;-82
2023/10/04 07:50:56;;;;;;;3.53;2.30;;;;;;;;;;4995099;28;20179;-82
2023/10/04 07:54:01;;;;;;;3.73;2.00;;;;;;;;;;4994646;28;20182;-81
2023/10/04 07:57:06;;;;;;;4.97;2.47;;;;;;;;;;4995313;28;20213;-82
2023/10/04 08:00:15;;;;;;;4.93;2.30;;;;;;;;;;4994692;28;20171;-82
2023/10/04 08:03:22;;;;;;;3.90;2.20;;;;;;;;;;4996062;28;20301;-81
2023/10/04 08:06:25;;;;;;;5.10;2.03;;;;;;;;;;4995221;28;20521;-83
2023/10/04 08:09:30;;;;;;;8.30;2.80;;;;;;;;;;4994617;28;20179;-81
2023/10/04 08:12:34;;;;;;;5.90;2.70;;;;;;;;;;5041135;28;20179;-83
2023/10/04 08:15:38;;;;;;;7.30;4.67;;;;;;;;;;5040995;28;20182;-83
2023/10/04 08:18:43;;;;;;;10.47;6.43;;;;;;;;;;5041274;28;20229;-83
2023/10/04 08:21:47;;;;;;;6.97;5.20;;;;;;;;;;4994781;28;20182;-83
2023/10/04 08:24:53;;;;;;;6.27;2.83;;;;;;;;;;4994746;28;20631;-82
2023/10/04 08:27:57;;;;;;;5.93;2.30;;;;;;;;;;5029294;28;20695;-83
2023/10/04 08:31:01;;;;;;;5.27;2.47;;;;;;;;;;4994753;28;20183;-84
2023/10/04 08:34:05;;;;;;;5.53;2.17;;;;;;;;;;4994600;28;20643;-82
2023/10/04 08:37:09;;;;;;;4.13;2.30;;;;;;;;;;5041334;28;20217;-83
2023/10/04 08:40:13;;;;;;;5.37;2.70;;;;;;;;;;4994938;28;20175;-82
2023/10/04 08:43:17;;;;;;;6.20;2.50;;;;;;;;;;4994252;28;20186;-82
2023/10/04 08:46:22;;;;;;;4.37;2.13;;;;;;;;;;4994070;28;20182;-83
2023/10/04 08:49:35;;;;;;;3.33;2.20;;;;;;;;;;4994175;28;20186;-83
2023/10/04 08:52:41;;;;;;;3.77;2.20;;;;;;;;;;4994467;28;20190;-83
2023/10/04 08:55:51;;;;;;;3.40;2.00;;;;;;;;;;4994221;28;20186;-82
2023/10/04 08:58:58;;;;;;;5.43;2.30;;;;;;;;;;4994386;28;20226;-83
2023/10/04 09:02:02;;;;;;;3.67;1.80;;;;;;;;;;4994238;28;20631;-82
2023/10/04 09:05:10;;;;;;;4.60;2.57;;;;;;;;;;4994092;28;20182;-82
2023/10/04 09:08:16;;;;;;;3.80;2.57;;;;;;;;;;4994399;28;20210;-83
2023/10/04 09:11:20;;;;;;;3.93;2.37;;;;;;;;;;5040807;28;20183;-83
2023/10/04 09:14:25;;;;;;;5.77;2.63;;;;;;;;;;4985336;28;20178;-82
2023/10/04 09:17:42;;;;;;;4.33;2.40;;;;;;;;;;4997544;28;20698;-82
2023/10/04 09:20:47;;;;;;;3.10;2.30;;;;;;;;;;4997500;28;20174;-83
2023/10/04 09:24:05;;;;;;;3.03;2.00;;;;;;;;;;4997119;28;20179;-83
2023/10/04 09:27:09;;;;;;;4.20;2.17;;;;;;;;;;4996668;28;20549;-82
2023/10/04 09:30:27;;;;;;;7.60;2.20;;;;;;;;;;5043597;28;20183;-83
2023/10/04 09:33:34;;;;;;;3.77;1.90;;;;;;;;;;4996381;28;20192;-83
2023/10/04 09:36:38;;;;;;;3.13;1.90;;;;;;;;;;5043511;28;20646;-82
2023/10/04 09:39:42;;;;;;;3.77;1.90;;;;;;;;;;4996792;28;20217;-83
2023/10/04 09:42:55;;;;;;;3.30;1.93;;;;;;;;;;4996973;28;20189;-83
2023/10/04 09:46:00;;;;;;;3.77;2.40;;;;;;;;;;4996583;28;20187;-82
2023/10/04 09:49:05;;;;;;;4.80;2.20;;;;;;;;;;4996078;28;20636;-82
2023/10/04 09:52:14;;;;;;;3.07;1.80;;;;;;;;;;4995454;28;20180;-82
2023/10/04 09:55:22;;;;;;;4.47;2.27;;;;;;;;;;4996554;28;20181;-82
2023/10/04 09:58:29;;;;;;;4.30;1.80;;;;;;;;;;4997013;28;20571;-83
2023/10/04 10:01:37;;;;;;;3.80;2.10;;;;;;;;;;5043241;28;20190;-82
2023/10/04 10:04:43;;;;;;;3.03;1.80;;;;;;;;;;4997800;28;20181;-83
2023/10/04 10:07:51;;;;;;;3.67;2.07;;;;;;;;;;4997276;28;20211;-82
2023/10/04 10:10:55;;;;;;;3.20;2.03;;;;;;;;;;4997008;28;20185;-83
2023/10/04 10:14:03;;;;;;;4.50;2.00;;;;;;;;;;4996347;28;20193;-82
2023/10/04 10:17:10;;;;;;;3.83;2.33;;;;;;;;;;4997522;28;20224;-85
2023/10/04 10:20:16;;;;;;;5.27;2.23;;;;;;;;;;5044753;28;20202;-85
2023/10/04 10:23:19;;;;;;;4.03;1.97;;;;;;;;;;4998113;28;20193;-85
2023/10/04 10:26:24;;;;;;;4.10;2.00;;;;;;;;;;5044880;28;20182;-83
2023/10/04 10:29:31;;;;;;;3.10;1.60;;;;;;;;;;4996629;28;20539;-84
2023/10/04 10:32:35;;;;;;;4.43;2.23;;;;;;;;;;4984307;28;20534;-83
2023/10/04 10:35:58;;;;;;;3.30;1.90;;;;;;;;;;5042325;28;20192;-84
2023/10/04 10:39:19;;;;;;;3.37;2.10;;;;;;;;;;4983755;28;20230;-83
2023/10/04 10:42:23;;;;;;;4.68;2.10;;;;;;;;;;4996721;28;20185;-85
2023/10/04 10:45:28;;;;;;;3.17;2.03;;;;;;;;;;5043508;28;20194;-83
2023/10/04 10:48:33;;;;;;;4.23;1.80;;;;;;;;;;4995472;28;20217;-83
2023/10/04 10:51:45;;;;;;;3.73;1.83;;;;;;;;;;4995943;28;20634;-82
2023/10/04 10:54:50;;;;;;;8.93;2.20;;;;;;;;;;4973014;28;20184;-83
2023/10/04 10:57:57;;;;;;;3.80;2.20;;;;;;;;;;4995961;28;20214;-84
2023/10/04 11:01:01;;;;;;;27.47;3.03;;;;;;;;;;4995724;28;20178;-83
2023/10/04 11:04:05;;;;;;;30.13;3.60;;;;;;;;;;5042581;28;20175;-83
2023/10/04 11:07:11;;;;;;;6.53;2.00;;;;;;;;;;4995317;28;20220;-82
2023/10/04 11:10:17;;;;;;;6.87;2.23;;;;;;;;;;4996028;28;20175;-83
2023/10/04 11:13:24;;;;;;;3.13;1.63;;;;;;;;;;4996281;28;20185;-84
2023/10/04 11:16:29;;;;;;;12.33;2.57;;;;;;;;;;4995906;28;20178;-84
2023/10/04 11:19:34;;;;;;;3.83;1.73;;;;;;;;;;4995334;28;20207;-82
2023/10/04 11:22:44;;;;;;;5.53;2.00;;;;;;;;;;4996262;28;20178;-83
2023/10/04 11:25:48;;;;;;;3.00;1.63;;;;;;;;;;5042175;28;20183;-83
2023/10/04 11:28:53;;;;;;;2.70;1.60;;;;;;;;;;4996086;28;20231;-84
2023/10/04 11:31:58;;;;;;;2.47;1.70;;;;;;;;;;4995779;28;20527;-84
2023/10/04 11:35:08;;;;;;;9.43;2.13;;;;;;;;;;4996208;28;20520;-83
2023/10/04 11:38:15;;;;;;;14.67;2.30;;;;;;;;;;4995427;28;20214;-82
2023/10/04 11:41:22;;;;;;;3.13;1.93;;;;;;;;;;4996534;28;20183;-84
2023/10/04 11:44:26;;;;;;;3.10;1.90;;;;;;;;;;4995979;28;20524;-84
2023/10/04 11:47:34;;;;;;;12.30;2.50;;;;;;;;;;5031481;28;20218;-83
2023/10/04 11:50:44;;;;;;;6.30;1.50;;;;;;;;;;4995602;28;20178;-82
2023/10/04 11:53:53;;;;;;;7.03;2.07;;;;;;;;;;4994972;28;20186;-82
2023/10/04 11:56:58;;;;;;;2.23;1.60;;;;;;;;;;5042212;28;20187;-82
2023/10/04 12:00:16;;;;;;;17.33;2.73;;;;;;;;;;4995122;28;20210;-82
2023/10/04 12:03:21;;;;;;;7.60;1.50;;;;;;;;;;4995407;28;20186;-83
2023/10/04 12:06:29;;;;;;;3.87;1.73;;;;;;;;;;5042623;28;20178;-83
2023/10/04 12:09:36;;;;;;;4.30;1.77;;;;;;;;;;4995419;28;20202;-83
2023/10/04 12:12:41;;;;;;;2.50;1.40;;;;;;;;;;4995586;28;20178;-82
2023/10/04 12:15:45;;;;;;;4.83;1.80;;;;;;;;;;4995423;28;20175;-82
2023/10/04 12:18:49;;;;;;;37.57;3.87;;;;;;;;;;4995374;28;20222;-81
2023/10/04 12:21:53;;;;;;;4.10;1.87;;;;;;;;;;4994585;28;20183;-83
2023/10/04 12:24:59;;;;;;;2.43;1.60;;;;;;;;;;4994844;28;20184;-82
2023/10/04 12:28:07;;;;;;;13.40;2.23;;;;;;;;;;5040661;28;20228;-83
2023/10/04 12:31:12;;;;;;;10.47;1.97;;;;;;;;;;4995257;28;20499;-81
2023/10/04 12:34:17;;;;;;;5.07;1.63;;;;;;;;;;4983053;28;20192;-84
2023/10/04 12:37:21;;;;;;;12.20;2.43;;;;;;;;;;4994990;28;20225;-84
2023/10/04 12:40:25;;;;;;;5.63;1.60;;;;;;;;;;5040842;28;20201;-82
2023/10/04 12:43:29;;;;;;;3.73;1.33;;;;;;;;;;4994870;28;20180;-83
2023/10/04 12:46:33;;;;;;;7.60;2.17;;;;;;;;;;5028821;28;20531;-83
2023/10/04 12:49:37;;;;;;;2.57;1.30;;;;;;;;;;5029101;28;20179;-82
2023/10/04 12:52:43;;;;;;;12.53;2.37;;;;;;;;;;5029058;28;20174;-82
2023/10/04 12:55:48;;;;;;;11.60;2.20;;;;;;;;;;4994229;28;20183;-82
2023/10/04 12:58:53;;;;;;;6.13;1.80;;;;;;;;;;4993987;28;20222;-83
2023/10/04 13:01:57;;;;;;;9.27;1.97;;;;;;;;;;4994118;28;20187;-83
2023/10/04 13:05:01;;;;;;;7.70;1.73;;;;;;;;;;4982376;28;20204;-82
2023/10/04 13:08:08;;;;;;;2.80;1.37;;;;;;;;;;4994049;28;20220;-84
2023/10/04 13:11:14;;;;;;;19.90;2.43;;;;;;;;;;5031530;28;20173;-85
2023/10/04 13:14:18;;;;;;;10.90;1.80;;;;;;;;;;5038900;28;20656;-84
2023/10/04 13:17:23;;;;;;;4.60;1.40;;;;;;;;;;4993043;28;20218;-85
2023/10/04 13:20:28;;;;;;;3.27;1.70;;;;;;;;;;5039558;28;20218;-85
2023/10/04 13:23:32;;;;;;;19.20;2.67;;;;;;;;;;4992552;28;20188;-84
2023/10/04 13:26:37;;;;;;;7.80;2.00;;;;;;;;;;5039282;28;20186;-84
2023/10/04 13:29:41;;;;;;;2.20;1.30;;;;;;;;;;4992760;28;20201;-85
2023/10/04 13:32:48;;;;;;;6.77;1.57;;;;;;;;;;4970054;28;20529;-85
2023/10/04 13:35:52;;;;;;;6.87;2.03;;;;;;;;;;4981185;28;20645;-85
2023/10/04 13:38:56;;;;;;;3.47;1.70;;;;;;;;;;5027926;28;20218;-85
2023/10/04 13:42:00;;;;;;;3.73;1.67;;;;;;;;;;5027242;28;20184;-85
2023/10/04 13:45:06;;;;;;;4.73;1.73;;;;;;;;;;5027774;28;20193;-85
2023/10/04 13:48:10;;;;;;;29.13;2.50;;;;;;;;;;5027680;28;20220;-84
2023/10/04 13:51:23;;;;;;;11.23;1.70;;;;;;;;;;5039538;28;20176;-84
2023/10/04 13:54:31;;;;;;;1.83;1.20;;;;;;;;;;4992802;28;20184;-84
2023/10/04 13:57:38;;;;;;;2.90;1.30;;;;;;;;;;5039147;28;20215;-85
2023/10/04 14:00:44;;;;;;;3.40;1.20;;;;;;;;;;4995371;28;20218;-85
2023/10/04 14:03:48;;;;;;;1.40;1.00;;;;;;;;;;5043390;28;20188;-84
2023/10/04 14:06:52;;;;;;;11.43;1.80;;;;;;;;;;4997260;28;20174;-82
2023/10/04 14:09:57;;;;;;;3.10;1.70;;;;;;;;;;4997592;28;20175;-82
2023/10/04 14:13:31;;;;;;;2.97;1.47;;;;;;;;;;5043369;28;20186;-88
2023/10/04 14:16:41;;;;;;;21.07;2.77;;;;;;;;;;5043125;28;20175;-83
2023/10/04 14:19:47;;;;;;;4.77;1.50;;;;;;;;;;4984798;28;20638;-83
2023/10/04 14:22:52;;;;;;;3.37;1.30;;;;;;;;;;4996213;28;20183;-83
2023/10/04 14:25:56;;;;;;;2.73;1.23;;;;;;;;;;4996480;28;20520;-82
2023/10/04 14:29:01;;;;;;;11.13;2.10;;;;;;;;;;4996347;28;20222;-83
2023/10/04 14:32:05;;;;;;;4.50;1.20;;;;;;;;;;5043672;28;20179;-82
2023/10/04 14:35:10;;;;;;;4.40;1.43;;;;;;;;;;5043368;28;20179;-83
2023/10/04 14:38:15;;;;;;;6.97;1.93;;;;;;;;;;5043342;28;20702;-82
2023/10/04 14:41:22;;;;;;;3.50;1.30;;;;;;;;;;5043989;28;20547;-82
2023/10/04 14:44:26;;;;;;;10.03;1.57;;;;;;;;;;5045126;28;20182;-83
2023/10/04 14:47:31;;;;;;;4.90;1.33;;;;;;;;;;4996589;28;20222;-83
2023/10/04 14:50:35;;;;;;;1.93;1.10;;;;;;;;;;4996389;28;20182;-83
2023/10/04 14:53:40;;;;;;;3.80;1.23;;;;;;;;;;5043977;28;20642;-83
2023/10/04 14:56:44;;;;;;;7.27;1.43;;;;;;;;;;4996098;28;20182;-83
2023/10/04 14:59:48;;;;;;;4.30;1.10;;;;;;;;;;4996086;28;20190;-83
2023/10/04 15:02:56;;;;;;;7.33;1.20;;;;;;;;;;4996153;28;20178;-82
2023/10/04 15:06:00;;;;;;;3.70;1.17;;;;;;;;;;4996220;28;20190;-83
2023/10/04 15:09:04;;;;;;;4.13;1.60;;;;;;;;;;4995952;28;20178;-83
2023/10/04 15:12:09;;;;;;;3.27;1.10;;;;;;;;;;4996489;28;20182;-82
2023/10/04 15:15:15;;;;;;;1.80;0.93;;;;;;;;;;4996117;28;20187;-82
2023/10/04 15:18:19;;;;;;;4.13;1.00;;;;;;;;;;4996399;28;20218;-84
2023/10/04 15:21:26;;;;;;;1.83;0.93;;;;;;;;;;4996077;28;20214;-82
2023/10/04 15:24:30;;;;;;;1.40;0.97;;;;;;;;;;5031518;28;20187;-82
2023/10/04 15:27:35;;;;;;;4.97;1.40;;;;;;;;;;4996582;28;20218;-83
2023/10/04 15:30:40;;;;;;;3.50;1.70;;;;;;;;;;5041656;28;20190;-82
2023/10/04 15:33:48;;;;;;;4.07;1.30;;;;;;;;;;4996234;28;20178;-82
2023/10/04 15:36:53;;;;;;;6.23;1.30;;;;;;;;;;4995029;28;20179;-82
2023/10/04 15:39:57;;;;;;;9.40;1.60;;;;;;;;;;4995327;28;20175;-83
2023/10/04 15:43:08;;;;;;;3.33;1.10;;;;;;;;;;4993716;28;20186;-82
2023/10/04 15:46:12;;;;;;;4.63;1.30;;;;;;;;;;4994774;28;20182;-82
2023/10/04 15:49:17;;;;;;;3.50;1.03;;;;;;;;;;4994490;28;20178;-82
2023/10/04 15:52:21;;;;;;;8.43;1.30;;;;;;;;;;5041401;28;20525;-82
2023/10/04 15:55:26;;;;;;;11.27;1.60;;;;;;;;;;4994942;28;20525;-82
2023/10/04 15:58:32;;;;;;;4.13;1.17;;;;;;;;;;4981934;28;20214;-82
2023/10/04 16:01:36;;;;;;;7.13;1.27;;;;;;;;;;5040824;28;20206;-82
2023/10/04 16:04:40;;;;;;;2.57;0.90;;;;;;;;;;4994785;28;20182;-82
2023/10/04 16:07:44;;;;;;;5.13;1.30;;;;;;;;;;4995489;28;20210;-82
2023/10/04 16:10:48;;;;;;;2.00;1.00;;;;;;;;;;4995344;28;20178;-82
2023/10/04 16:13:53;;;;;;;2.90;0.97;;;;;;;;;;4994872;28;20178;-84
2023/10/04 16:16:58;;;;;;;4.20;1.10;;;;;;;;;;4971160;28;20182;-84
2023/10/04 16:20:07;;;;;;;2.00;1.10;;;;;;;;;;5040829;28;20182;-83
2023/10/04 16:23:11;;;;;;;7.13;1.60;;;;;;;;;;5040370;28;20186;-83
2023/10/04 16:26:15;;;;;;;2.67;0.80;;;;;;;;;;4983279;28;20183;-83
2023/10/04 16:29:20;;;;;;;8.03;1.30;;;;;;;;;;5041727;28;20194;-81
2023/10/04 16:32:26;;;;;;;5.33;1.13;;;;;;;;;;4994865;28;20174;-84
2023/10/04 16:35:30;;;;;;;4.53;1.10;;;;;;;;;;4995116;28;20528;-84
2023/10/04 16:38:34;;;;;;;7.63;1.30;;;;;;;;;;4994786;28;20213;-84
2023/10/04 16:41:38;;;;;;;5.10;1.03;;;;;;;;;;5030474;28;20214;-84
2023/10/04 16:44:42;;;;;;;4.27;1.27;;;;;;;;;;4994114;28;20175;-83
2023/10/04 16:47:48;;;;;;;5.37;1.20;;;;;;;;;;5040706;28;20217;-84
2023/10/04 16:50:52;;;;;;;4.80;1.20;;;;;;;;;;5040839;28;20179;-82
2023/10/04 16:53:56;;;;;;;2.60;1.30;;;;;;;;;;5040719;28;20179;-84
2023/10/04 16:57:00;;;;;;;6.43;1.37;;;;;;;;;;4983042;28;20218;-83
2023/10/04 17:00:06;;;;;;;3.53;0.87;;;;;;;;;;4994371;28;20529;-83
2023/10/04 17:03:10;;;;;;;2.40;1.10;;;;;;;;;;5040442;28;20183;-83
2023/10/04 17:06:16;;;;;;;3.07;0.90;;;;;;;;;;4995071;28;20186;-84
2023/10/04 17:09:20;;;;;;;2.60;1.00;;;;;;;;;;4982298;28;20178;-82
2023/10/04 17:12:24;;;;;;;3.23;1.00;;;;;;;;;;5040700;28;20182;-83
2023/10/04 17:15:29;;;;;;;7.53;1.37;;;;;;;;;;4995666;28;20186;-84
2023/10/04 17:18:33;;;;;;;4.77;1.07;;;;;;;;;;4994592;28;20694;-83
2023/10/04 17:21:37;;;;;;;4.40;1.37;;;;;;;;;;4994622;28;20210;-83
2023/10/04 17:24:42;;;;;;;3.07;1.20;;;;;;;;;;4995046;28;20643;-84
2023/10/04 17:27:46;;;;;;;4.97;1.00;;;;;;;;;;5042840;28;20583;-83
2023/10/04 17:30:51;;;;;;;4.13;1.10;;;;;;;;;;5030776;28;20179;-84
2023/10/04 17:33:55;;;;;;;4.93;1.40;;;;;;;;;;4996818;28;20186;-84
2023/10/04 17:37:01;;;;;;;2.90;1.37;;;;;;;;;;5044871;28;20217;-83
2023/10/04 17:40:06;;;;;;;2.90;1.07;;;;;;;;;;4997727;28;20200;-84
2023/10/04 17:43:10;;;;;;;4.93;1.50;;;;;;;;;;4997414;28;20520;-83
2023/10/04 17:46:14;;;;;;;3.10;1.40;;;;;;;;;;5045114;28;20186;-83
2023/10/04 17:49:19;;;;;;;3.50;1.27;;;;;;;;;;4985982;28;20178;-82
2023/10/04 17:52:25;;;;;;;3.60;1.10;;;;;;;;;;5043737;28;20178;-83
2023/10/04 17:55:30;;;;;;;8.57;1.50;;;;;;;;;;5044073;28;20183;-82
2023/10/04 17:58:35;;;;;;;2.40;1.03;;;;;;;;;;4998227;28;20222;-82
2023/10/04 18:01:39;;;;;;;4.87;1.40;;;;;;;;;;4997318;28;20209;-83
2023/10/04 18:04:43;;;;;;;5.37;1.20;;;;;;;;;;4996492;28;20182;-83
2023/10/04 18:07:48;;;;;;;2.13;1.00;;;;;;;;;;4997047;28;20210;-83
2023/10/04 18:10:53;;;;;;;5.67;1.07;;;;;;;;;;5043376;28;20635;-83
2023/10/04 18:13:57;;;;;;;3.77;1.20;;;;;;;;;;4996586;28;20182;-83
2023/10/04 18:17:02;;;;;;;2.43;0.93;;;;;;;;;;5043108;28;20221;-83
2023/10/04 18:20:10;;;;;;;6.10;1.20;;;;;;;;;;4997275;28;20520;-82
2023/10/04 18:23:15;;;;;;;7.03;1.10;;;;;;;;;;4997365;28;20178;-83
2023/10/04 18:26:19;;;;;;;5.00;1.43;;;;;;;;;;4996582;28;20198;-82
2023/10/04 18:29:24;;;;;;;5.00;1.40;;;;;;;;;;4998507;28;20210;-81
2023/10/04 18:32:28;;;;;;;1.40;1.00;;;;;;;;;;4996950;28;20178;-82
2023/10/04 18:35:32;;;;;;;3.87;1.20;;;;;;;;;;4996485;28;20179;-81